sensor_id;sensor_type;location;lat;lon;timestamp;P1;durP1;ratioP1;P2;durP2;ratioP2
61962;SDS011;47927;42.646;23.096;2023-08-17T00:01:34;14.88;;;9.27;;
61962;SDS011;47927;42.646;23.096;2023-08-17T00:04:00;12.02;;;8.65;;
61962;SDS011;47927;42.646;23.096;2023-08-17T00:06:26;11.77;;;8.43;;
61962;SDS011;47927;42.646;23.096;2023-08-17T00:08:51;12.00;;;8.57;;
61962;SDS011;47927;42.646;23.096;2023-08-17T00:11:17;13.57;;;8.80;;
61962;SDS011;47927;42.646;23.096;2023-08-17T00:13:42;14.57;;;8.52;;
61962;SDS011;47927;42.646;23.096;2023-08-17T00:16:08;11.00;;;9.05;;
61962;SDS011;47927;42.646;23.096;2023-08-17T00:18:33;10.55;;;9.48;;
61962;SDS011;47927;42.646;23.096;2023-08-17T00:20:59;18.10;;;12.98;;
61962;SDS011;47927;42.646;23.096;2023-08-17T00:23:24;14.95;;;12.90;;
61962;SDS011;47927;42.646;23.096;2023-08-17T00:25:50;17.02;;;12.10;;
61962;SDS011;47927;42.646;23.096;2023-08-17T00:28:16;18.60;;;11.63;;
61962;SDS011;47927;42.646;23.096;2023-08-17T00:30:42;14.27;;;11.32;;
61962;SDS011;47927;42.646;23.096;2023-08-17T00:33:08;13.25;;;11.70;;
61962;SDS011;47927;42.646;23.096;2023-08-17T00:35:33;15.65;;;12.75;;
61962;SDS011;47927;42.646;23.096;2023-08-17T00:37:59;19.30;;;11.45;;
61962;SDS011;47927;42.646;23.096;2023-08-17T00:40:25;15.13;;;12.13;;
61962;SDS011;47927;42.646;23.096;2023-08-17T00:42:50;15.68;;;12.23;;
61962;SDS011;47927;42.646;23.096;2023-08-17T00:45:17;14.38;;;11.95;;
61962;SDS011;47927;42.646;23.096;2023-08-17T00:47:44;14.25;;;10.55;;
61962;SDS011;47927;42.646;23.096;2023-08-17T00:50:10;14.15;;;11.32;;
61962;SDS011;47927;42.646;23.096;2023-08-17T00:52:37;15.25;;;12.52;;
61962;SDS011;47927;42.646;23.096;2023-08-17T00:55:03;16.85;;;12.57;;
61962;SDS011;47927;42.646;23.096;2023-08-17T00:57:30;16.45;;;12.10;;
61962;SDS011;47927;42.646;23.096;2023-08-17T00:59:58;15.90;;;10.73;;
61962;SDS011;47927;42.646;23.096;2023-08-17T01:02:24;14.52;;;11.23;;
61962;SDS011;47927;42.646;23.096;2023-08-17T01:04:50;13.50;;;11.35;;
61962;SDS011;47927;42.646;23.096;2023-08-17T01:07:15;13.98;;;11.48;;
61962;SDS011;47927;42.646;23.096;2023-08-17T01:09:41;15.00;;;11.40;;
61962;SDS011;47927;42.646;23.096;2023-08-17T01:12:16;16.77;;;11.60;;
61962;SDS011;47927;42.646;23.096;2023-08-17T01:15:04;17.13;;;10.20;;
61962;SDS011;47927;42.646;23.096;2023-08-17T01:17:47;15.07;;;10.13;;
61962;SDS011;47927;42.646;23.096;2023-08-17T01:20:17;13.50;;;10.75;;
61962;SDS011;47927;42.646;23.096;2023-08-17T01:22:45;11.38;;;10.18;;
61962;SDS011;47927;42.646;23.096;2023-08-17T01:25:13;14.57;;;10.57;;
61962;SDS011;47927;42.646;23.096;2023-08-17T01:27:40;12.07;;;10.07;;
61962;SDS011;47927;42.646;23.096;2023-08-17T01:30:06;11.15;;;9.88;;
61962;SDS011;47927;42.646;23.096;2023-08-17T01:32:39;12.98;;;9.27;;
61962;SDS011;47927;42.646;23.096;2023-08-17T01:38:24;10.15;;;8.27;;
61962;SDS011;47927;42.646;23.096;2023-08-17T01:40:52;13.32;;;8.27;;
61962;SDS011;47927;42.646;23.096;2023-08-17T01:43:18;11.15;;;8.23;;
61962;SDS011;47927;42.646;23.096;2023-08-17T01:45:45;10.13;;;7.38;;
61962;SDS011;47927;42.646;23.096;2023-08-17T01:48:10;9.32;;;7.18;;
61962;SDS011;47927;42.646;23.096;2023-08-17T01:50:36;10.50;;;7.07;;
61962;SDS011;47927;42.646;23.096;2023-08-17T01:53:02;10.13;;;6.55;;
61962;SDS011;47927;42.646;23.096;2023-08-17T01:55:27;8.98;;;5.85;;
61962;SDS011;47927;42.646;23.096;2023-08-17T01:57:53;8.07;;;6.63;;
61962;SDS011;47927;42.646;23.096;2023-08-17T02:00:19;8.55;;;5.50;;
61962;SDS011;47927;42.646;23.096;2023-08-17T02:02:44;9.75;;;5.68;;
61962;SDS011;47927;42.646;23.096;2023-08-17T02:05:10;9.95;;;5.28;;
61962;SDS011;47927;42.646;23.096;2023-08-17T02:07:36;12.88;;;6.03;;
61962;SDS011;47927;42.646;23.096;2023-08-17T02:10:01;6.85;;;5.65;;
61962;SDS011;47927;42.646;23.096;2023-08-17T02:12:28;9.15;;;5.10;;
61962;SDS011;47927;42.646;23.096;2023-08-17T02:14:53;11.60;;;5.15;;
61962;SDS011;47927;42.646;23.096;2023-08-17T02:17:19;6.78;;;4.90;;
61962;SDS011;47927;42.646;23.096;2023-08-17T02:19:46;9.18;;;5.38;;
61962;SDS011;47927;42.646;23.096;2023-08-17T02:22:13;10.63;;;5.15;;
61962;SDS011;47927;42.646;23.096;2023-08-17T02:24:39;9.35;;;4.93;;
61962;SDS011;47927;42.646;23.096;2023-08-17T02:27:06;9.68;;;5.35;;
61962;SDS011;47927;42.646;23.096;2023-08-17T02:29:32;7.70;;;4.95;;
61962;SDS011;47927;42.646;23.096;2023-08-17T02:31:58;10.95;;;5.50;;
61962;SDS011;47927;42.646;23.096;2023-08-17T02:34:25;8.10;;;4.90;;
61962;SDS011;47927;42.646;23.096;2023-08-17T02:36:51;11.95;;;6.93;;
61962;SDS011;47927;42.646;23.096;2023-08-17T02:39:16;8.30;;;4.88;;
61962;SDS011;47927;42.646;23.096;2023-08-17T02:41:42;8.23;;;5.18;;
61962;SDS011;47927;42.646;23.096;2023-08-17T02:44:10;6.90;;;4.53;;
61962;SDS011;47927;42.646;23.096;2023-08-17T02:46:35;10.50;;;6.63;;
61962;SDS011;47927;42.646;23.096;2023-08-17T02:49:01;8.18;;;5.55;;
61962;SDS011;47927;42.646;23.096;2023-08-17T02:51:27;7.97;;;5.43;;
61962;SDS011;47927;42.646;23.096;2023-08-17T02:53:52;7.82;;;4.85;;
61962;SDS011;47927;42.646;23.096;2023-08-17T02:56:18;10.23;;;6.10;;
61962;SDS011;47927;42.646;23.096;2023-08-17T02:58:43;12.80;;;7.13;;
61962;SDS011;47927;42.646;23.096;2023-08-17T03:01:08;8.65;;;5.85;;
61962;SDS011;47927;42.646;23.096;2023-08-17T03:03:34;13.25;;;6.97;;
61962;SDS011;47927;42.646;23.096;2023-08-17T03:06:01;8.90;;;5.68;;
61962;SDS011;47927;42.646;23.096;2023-08-17T03:08:27;8.15;;;4.82;;
61962;SDS011;47927;42.646;23.096;2023-08-17T03:10:53;11.07;;;8.77;;
61962;SDS011;47927;42.646;23.096;2023-08-17T03:13:19;9.57;;;6.82;;
61962;SDS011;47927;42.646;23.096;2023-08-17T03:15:44;13.10;;;8.80;;
61962;SDS011;47927;42.646;23.096;2023-08-17T03:20:55;10.38;;;7.68;;
61962;SDS011;47927;42.646;23.096;2023-08-17T03:23:21;8.63;;;7.05;;
61962;SDS011;47927;42.646;23.096;2023-08-17T03:25:50;10.70;;;7.90;;
61962;SDS011;47927;42.646;23.096;2023-08-17T03:28:17;10.48;;;8.63;;
61962;SDS011;47927;42.646;23.096;2023-08-17T03:30:43;10.45;;;7.53;;
61962;SDS011;47927;42.646;23.096;2023-08-17T03:33:10;10.32;;;7.55;;
61962;SDS011;47927;42.646;23.096;2023-08-17T03:35:35;12.20;;;7.60;;
61962;SDS011;47927;42.646;23.096;2023-08-17T03:38:01;21.25;;;7.60;;
61962;SDS011;47927;42.646;23.096;2023-08-17T03:40:26;12.68;;;6.70;;
61962;SDS011;47927;42.646;23.096;2023-08-17T03:42:52;9.45;;;7.53;;
61962;SDS011;47927;42.646;23.096;2023-08-17T03:45:18;8.98;;;6.20;;
61962;SDS011;47927;42.646;23.096;2023-08-17T03:47:43;11.73;;;5.60;;
61962;SDS011;47927;42.646;23.096;2023-08-17T03:50:09;9.65;;;6.85;;
61962;SDS011;47927;42.646;23.096;2023-08-17T03:52:35;8.07;;;5.40;;
61962;SDS011;47927;42.646;23.096;2023-08-17T03:55:01;10.57;;;6.30;;
61962;SDS011;47927;42.646;23.096;2023-08-17T03:57:26;9.80;;;6.32;;
61962;SDS011;47927;42.646;23.096;2023-08-17T03:59:52;12.52;;;7.13;;
61962;SDS011;47927;42.646;23.096;2023-08-17T04:02:18;9.30;;;7.28;;
61962;SDS011;47927;42.646;23.096;2023-08-17T04:04:43;12.43;;;8.88;;
61962;SDS011;47927;42.646;23.096;2023-08-17T04:07:09;9.30;;;7.22;;
61962;SDS011;47927;42.646;23.096;2023-08-17T04:09:34;12.10;;;6.22;;
61962;SDS011;47927;42.646;23.096;2023-08-17T04:12:00;10.70;;;8.02;;
61962;SDS011;47927;42.646;23.096;2023-08-17T04:14:26;7.53;;;5.78;;
61962;SDS011;47927;42.646;23.096;2023-08-17T04:16:52;7.65;;;5.53;;
61962;SDS011;47927;42.646;23.096;2023-08-17T04:19:18;8.68;;;6.25;;
61962;SDS011;47927;42.646;23.096;2023-08-17T04:21:44;10.43;;;7.00;;
61962;SDS011;47927;42.646;23.096;2023-08-17T04:24:09;12.30;;;5.32;;
61962;SDS011;47927;42.646;23.096;2023-08-17T04:26:35;7.90;;;5.65;;
61962;SDS011;47927;42.646;23.096;2023-08-17T04:29:00;10.80;;;5.30;;
61962;SDS011;47927;42.646;23.096;2023-08-17T04:31:27;9.43;;;5.15;;
61962;SDS011;47927;42.646;23.096;2023-08-17T04:33:58;8.25;;;5.45;;
61962;SDS011;47927;42.646;23.096;2023-08-17T04:36:23;9.82;;;5.40;;
61962;SDS011;47927;42.646;23.096;2023-08-17T04:38:49;8.25;;;5.97;;
61962;SDS011;47927;42.646;23.096;2023-08-17T04:41:14;11.02;;;6.50;;
61962;SDS011;47927;42.646;23.096;2023-08-17T04:43:40;8.82;;;5.97;;
61962;SDS011;47927;42.646;23.096;2023-08-17T04:46:06;7.40;;;5.28;;
61962;SDS011;47927;42.646;23.096;2023-08-17T04:48:31;8.65;;;5.47;;
61962;SDS011;47927;42.646;23.096;2023-08-17T04:50:57;12.35;;;5.50;;
61962;SDS011;47927;42.646;23.096;2023-08-17T04:53:23;12.43;;;6.30;;
61962;SDS011;47927;42.646;23.096;2023-08-17T04:55:49;9.65;;;5.70;;
61962;SDS011;47927;42.646;23.096;2023-08-17T04:58:14;9.60;;;5.05;;
61962;SDS011;47927;42.646;23.096;2023-08-17T05:00:40;10.18;;;5.97;;
61962;SDS011;47927;42.646;23.096;2023-08-17T05:03:06;9.68;;;5.60;;
61962;SDS011;47927;42.646;23.096;2023-08-17T05:05:36;9.80;;;5.95;;
61962;SDS011;47927;42.646;23.096;2023-08-17T05:08:06;10.52;;;5.97;;
61962;SDS011;47927;42.646;23.096;2023-08-17T05:10:32;8.63;;;5.47;;
61962;SDS011;47927;42.646;23.096;2023-08-17T05:12:58;9.77;;;5.93;;
61962;SDS011;47927;42.646;23.096;2023-08-17T05:15:23;13.00;;;6.32;;
61962;SDS011;47927;42.646;23.096;2023-08-17T05:17:49;13.98;;;6.18;;
61962;SDS011;47927;42.646;23.096;2023-08-17T05:20:16;8.48;;;5.35;;
61962;SDS011;47927;42.646;23.096;2023-08-17T05:22:42;6.93;;;5.50;;
61962;SDS011;47927;42.646;23.096;2023-08-17T05:25:08;10.85;;;5.53;;
61962;SDS011;47927;42.646;23.096;2023-08-17T05:27:36;7.37;;;5.17;;
61962;SDS011;47927;42.646;23.096;2023-08-17T05:30:01;6.53;;;4.97;;
61962;SDS011;47927;42.646;23.096;2023-08-17T05:32:27;8.30;;;5.10;;
61962;SDS011;47927;42.646;23.096;2023-08-17T05:34:53;8.00;;;5.30;;
61962;SDS011;47927;42.646;23.096;2023-08-17T05:37:19;8.73;;;5.10;;
61962;SDS011;47927;42.646;23.096;2023-08-17T05:39:45;7.97;;;5.05;;
61962;SDS011;47927;42.646;23.096;2023-08-17T05:42:10;8.30;;;4.97;;
61962;SDS011;47927;42.646;23.096;2023-08-17T05:44:36;6.90;;;4.80;;
61962;SDS011;47927;42.646;23.096;2023-08-17T05:47:01;10.25;;;5.78;;
61962;SDS011;47927;42.646;23.096;2023-08-17T05:49:27;9.27;;;5.00;;
61962;SDS011;47927;42.646;23.096;2023-08-17T05:51:53;11.00;;;5.20;;
61962;SDS011;47927;42.646;23.096;2023-08-17T05:54:18;10.65;;;5.40;;
61962;SDS011;47927;42.646;23.096;2023-08-17T05:56:44;11.88;;;5.32;;
61962;SDS011;47927;42.646;23.096;2023-08-17T05:59:12;9.75;;;5.15;;
61962;SDS011;47927;42.646;23.096;2023-08-17T06:01:38;10.70;;;5.32;;
61962;SDS011;47927;42.646;23.096;2023-08-17T06:04:04;7.15;;;4.50;;
61962;SDS011;47927;42.646;23.096;2023-08-17T06:06:30;9.75;;;4.72;;
61962;SDS011;47927;42.646;23.096;2023-08-17T06:08:55;7.88;;;4.15;;
61962;SDS011;47927;42.646;23.096;2023-08-17T06:11:21;16.80;;;4.78;;
61962;SDS011;47927;42.646;23.096;2023-08-17T06:13:48;12.00;;;4.70;;
61962;SDS011;47927;42.646;23.096;2023-08-17T06:16:13;10.30;;;4.57;;
61962;SDS011;47927;42.646;23.096;2023-08-17T06:18:39;6.85;;;4.47;;
61962;SDS011;47927;42.646;23.096;2023-08-17T06:21:04;11.23;;;4.70;;
61962;SDS011;47927;42.646;23.096;2023-08-17T06:23:30;9.32;;;3.63;;
61962;SDS011;47927;42.646;23.096;2023-08-17T06:25:56;9.68;;;3.70;;
61962;SDS011;47927;42.646;23.096;2023-08-17T06:28:24;5.00;;;3.47;;
61962;SDS011;47927;42.646;23.096;2023-08-17T06:30:56;8.63;;;3.30;;
61962;SDS011;47927;42.646;23.096;2023-08-17T06:33:22;11.73;;;3.53;;
61962;SDS011;47927;42.646;23.096;2023-08-17T06:35:48;7.30;;;3.38;;
61962;SDS011;47927;42.646;23.096;2023-08-17T06:40:41;7.47;;;3.03;;
61962;SDS011;47927;42.646;23.096;2023-08-17T06:43:07;11.10;;;2.97;;
61962;SDS011;47927;42.646;23.096;2023-08-17T06:45:32;9.38;;;3.15;;
61962;SDS011;47927;42.646;23.096;2023-08-17T06:47:58;5.63;;;2.60;;
61962;SDS011;47927;42.646;23.096;2023-08-17T06:50:24;6.47;;;2.85;;
61962;SDS011;47927;42.646;23.096;2023-08-17T06:52:50;6.50;;;2.50;;
61962;SDS011;47927;42.646;23.096;2023-08-17T06:55:15;5.93;;;3.08;;
61962;SDS011;47927;42.646;23.096;2023-08-17T06:57:42;11.82;;;3.22;;
61962;SDS011;47927;42.646;23.096;2023-08-17T07:00:07;5.70;;;3.25;;
61962;SDS011;47927;42.646;23.096;2023-08-17T07:02:33;9.73;;;3.28;;
61962;SDS011;47927;42.646;23.096;2023-08-17T07:05:02;7.70;;;2.90;;
61962;SDS011;47927;42.646;23.096;2023-08-17T07:07:30;5.90;;;3.10;;
61962;SDS011;47927;42.646;23.096;2023-08-17T07:09:58;6.15;;;3.20;;
61962;SDS011;47927;42.646;23.096;2023-08-17T07:12:24;7.80;;;3.25;;
61962;SDS011;47927;42.646;23.096;2023-08-17T07:14:50;5.75;;;2.97;;
61962;SDS011;47927;42.646;23.096;2023-08-17T07:17:15;7.65;;;2.88;;
61962;SDS011;47927;42.646;23.096;2023-08-17T07:19:41;8.77;;;3.15;;
61962;SDS011;47927;42.646;23.096;2023-08-17T07:22:07;13.55;;;3.40;;
61962;SDS011;47927;42.646;23.096;2023-08-17T07:24:32;6.45;;;2.88;;
61962;SDS011;47927;42.646;23.096;2023-08-17T07:26:58;5.82;;;3.15;;
61962;SDS011;47927;42.646;23.096;2023-08-17T07:29:23;7.28;;;3.17;;
61962;SDS011;47927;42.646;23.096;2023-08-17T07:31:49;7.57;;;3.40;;
61962;SDS011;47927;42.646;23.096;2023-08-17T07:34:14;7.50;;;2.78;;
61962;SDS011;47927;42.646;23.096;2023-08-17T07:36:40;8.38;;;3.20;;
61962;SDS011;47927;42.646;23.096;2023-08-17T07:39:06;11.05;;;3.10;;
61962;SDS011;47927;42.646;23.096;2023-08-17T07:41:32;8.40;;;3.13;;
61962;SDS011;47927;42.646;23.096;2023-08-17T07:43:57;7.22;;;3.03;;
61962;SDS011;47927;42.646;23.096;2023-08-17T07:46:23;4.82;;;3.13;;
61962;SDS011;47927;42.646;23.096;2023-08-17T07:48:49;7.45;;;3.13;;
61962;SDS011;47927;42.646;23.096;2023-08-17T07:51:14;6.30;;;2.70;;
61962;SDS011;47927;42.646;23.096;2023-08-17T07:53:40;7.50;;;3.03;;
61962;SDS011;47927;42.646;23.096;2023-08-17T07:56:05;5.60;;;2.60;;
61962;SDS011;47927;42.646;23.096;2023-08-17T07:58:31;5.13;;;2.70;;
61962;SDS011;47927;42.646;23.096;2023-08-17T08:00:57;4.72;;;2.80;;
61962;SDS011;47927;42.646;23.096;2023-08-17T08:03:22;10.82;;;2.90;;
61962;SDS011;47927;42.646;23.096;2023-08-17T08:05:48;10.30;;;2.80;;
61962;SDS011;47927;42.646;23.096;2023-08-17T08:08:13;4.30;;;2.50;;
61962;SDS011;47927;42.646;23.096;2023-08-17T08:10:40;5.20;;;2.70;;
61962;SDS011;47927;42.646;23.096;2023-08-17T08:13:06;7.70;;;2.58;;
61962;SDS011;47927;42.646;23.096;2023-08-17T08:15:32;4.47;;;2.33;;
61962;SDS011;47927;42.646;23.096;2023-08-17T08:17:58;9.53;;;2.77;;
61962;SDS011;47927;42.646;23.096;2023-08-17T08:20:24;5.65;;;2.70;;
61962;SDS011;47927;42.646;23.096;2023-08-17T08:22:49;8.88;;;2.40;;
61962;SDS011;47927;42.646;23.096;2023-08-17T08:25:15;4.35;;;2.50;;
61962;SDS011;47927;42.646;23.096;2023-08-17T08:27:40;5.93;;;2.58;;
61962;SDS011;47927;42.646;23.096;2023-08-17T08:30:06;4.95;;;2.50;;
61962;SDS011;47927;42.646;23.096;2023-08-17T08:32:32;8.23;;;2.45;;
61962;SDS011;47927;42.646;23.096;2023-08-17T08:34:58;6.90;;;2.50;;
61962;SDS011;47927;42.646;23.096;2023-08-17T08:37:23;8.70;;;2.53;;
61962;SDS011;47927;42.646;23.096;2023-08-17T08:39:52;5.10;;;2.25;;
61962;SDS011;47927;42.646;23.096;2023-08-17T08:42:19;4.50;;;2.40;;
61962;SDS011;47927;42.646;23.096;2023-08-17T08:44:46;4.90;;;2.40;;
61962;SDS011;47927;42.646;23.096;2023-08-17T08:47:12;7.43;;;2.80;;
61962;SDS011;47927;42.646;23.096;2023-08-17T08:49:38;5.05;;;2.58;;
61962;SDS011;47927;42.646;23.096;2023-08-17T08:52:07;8.55;;;2.45;;
61962;SDS011;47927;42.646;23.096;2023-08-17T08:57:01;5.57;;;2.50;;
61962;SDS011;47927;42.646;23.096;2023-08-17T08:59:29;5.35;;;2.70;;
61962;SDS011;47927;42.646;23.096;2023-08-17T09:01:56;7.60;;;2.55;;
61962;SDS011;47927;42.646;23.096;2023-08-17T09:04:23;6.87;;;2.67;;
61962;SDS011;47927;42.646;23.096;2023-08-17T09:06:49;6.53;;;2.67;;
61962;SDS011;47927;42.646;23.096;2023-08-17T09:09:16;7.00;;;2.55;;
61962;SDS011;47927;42.646;23.096;2023-08-17T09:11:43;3.63;;;2.13;;
61962;SDS011;47927;42.646;23.096;2023-08-17T09:14:09;4.22;;;2.10;;
61962;SDS011;47927;42.646;23.096;2023-08-17T09:16:35;5.03;;;2.95;;
61962;SDS011;47927;42.646;23.096;2023-08-17T09:19:00;4.93;;;2.30;;
61962;SDS011;47927;42.646;23.096;2023-08-17T09:21:26;4.75;;;2.33;;
61962;SDS011;47927;42.646;23.096;2023-08-17T09:23:57;5.18;;;2.60;;
61962;SDS011;47927;42.646;23.096;2023-08-17T09:26:22;6.75;;;2.13;;
61962;SDS011;47927;42.646;23.096;2023-08-17T09:28:51;7.15;;;2.40;;
61962;SDS011;47927;42.646;23.096;2023-08-17T09:31:19;4.32;;;2.47;;
61962;SDS011;47927;42.646;23.096;2023-08-17T09:33:47;6.68;;;2.40;;
61962;SDS011;47927;42.646;23.096;2023-08-17T09:36:14;4.03;;;2.20;;
61962;SDS011;47927;42.646;23.096;2023-08-17T09:38:40;5.70;;;2.45;;
61962;SDS011;47927;42.646;23.096;2023-08-17T09:41:06;5.45;;;2.38;;
61962;SDS011;47927;42.646;23.096;2023-08-17T09:43:31;3.97;;;2.30;;
61962;SDS011;47927;42.646;23.096;2023-08-17T09:45:59;6.13;;;2.42;;
61962;SDS011;47927;42.646;23.096;2023-08-17T09:48:27;7.75;;;2.67;;
61962;SDS011;47927;42.646;23.096;2023-08-17T09:50:53;5.93;;;2.72;;
61962;SDS011;47927;42.646;23.096;2023-08-17T09:53:21;4.60;;;2.67;;
61962;SDS011;47927;42.646;23.096;2023-08-17T09:55:47;4.97;;;2.75;;
61962;SDS011;47927;42.646;23.096;2023-08-17T09:58:13;5.93;;;2.30;;
61962;SDS011;47927;42.646;23.096;2023-08-17T10:00:46;7.03;;;2.60;;
61962;SDS011;47927;42.646;23.096;2023-08-17T10:03:14;6.10;;;2.40;;
61962;SDS011;47927;42.646;23.096;2023-08-17T10:05:41;6.93;;;2.50;;
61962;SDS011;47927;42.646;23.096;2023-08-17T10:08:08;4.85;;;2.65;;
61962;SDS011;47927;42.646;23.096;2023-08-17T10:10:36;5.15;;;2.65;;
61962;SDS011;47927;42.646;23.096;2023-08-17T10:16:04;6.97;;;2.50;;
61962;SDS011;47927;42.646;23.096;2023-08-17T10:18:45;8.10;;;2.10;;
61962;SDS011;47927;42.646;23.096;2023-08-17T10:21:20;7.63;;;2.58;;
61962;SDS011;47927;42.646;23.096;2023-08-17T10:23:51;4.28;;;2.20;;
61962;SDS011;47927;42.646;23.096;2023-08-17T10:26:17;6.07;;;2.05;;
61962;SDS011;47927;42.646;23.096;2023-08-17T10:28:44;5.07;;;2.13;;
61962;SDS011;47927;42.646;23.096;2023-08-17T10:31:10;4.77;;;2.27;;
61962;SDS011;47927;42.646;23.096;2023-08-17T10:33:36;5.57;;;2.80;;
61962;SDS011;47927;42.646;23.096;2023-08-17T10:36:03;3.85;;;2.03;;
61962;SDS011;47927;42.646;23.096;2023-08-17T10:38:30;6.70;;;2.25;;
61962;SDS011;47927;42.646;23.096;2023-08-17T10:41:29;6.22;;;2.13;;
61962;SDS011;47927;42.646;23.096;2023-08-17T10:43:56;4.32;;;2.22;;
61962;SDS011;47927;42.646;23.096;2023-08-17T10:46:36;9.88;;;3.00;;
61962;SDS011;47927;42.646;23.096;2023-08-17T10:49:05;7.63;;;2.67;;
61962;SDS011;47927;42.646;23.096;2023-08-17T10:51:31;4.68;;;2.00;;
61962;SDS011;47927;42.646;23.096;2023-08-17T10:54:04;4.65;;;1.90;;
61962;SDS011;47927;42.646;23.096;2023-08-17T10:56:30;7.07;;;2.08;;
61962;SDS011;47927;42.646;23.096;2023-08-17T10:58:59;8.07;;;2.25;;
61962;SDS011;47927;42.646;23.096;2023-08-17T11:01:32;3.08;;;1.70;;
61962;SDS011;47927;42.646;23.096;2023-08-17T11:04:11;8.93;;;2.20;;
61962;SDS011;47927;42.646;23.096;2023-08-17T11:06:42;4.45;;;2.20;;
61962;SDS011;47927;42.646;23.096;2023-08-17T11:09:09;3.95;;;1.98;;
61962;SDS011;47927;42.646;23.096;2023-08-17T11:11:34;4.53;;;1.88;;
61962;SDS011;47927;42.646;23.096;2023-08-17T11:14:00;4.63;;;2.15;;
61962;SDS011;47927;42.646;23.096;2023-08-17T11:16:25;3.40;;;2.00;;
61962;SDS011;47927;42.646;23.096;2023-08-17T11:18:51;3.85;;;2.00;;
61962;SDS011;47927;42.646;23.096;2023-08-17T11:21:17;4.40;;;1.80;;
61962;SDS011;47927;42.646;23.096;2023-08-17T11:23:43;3.92;;;1.80;;
61962;SDS011;47927;42.646;23.096;2023-08-17T11:26:09;4.32;;;1.92;;
61962;SDS011;47927;42.646;23.096;2023-08-17T11:28:34;6.70;;;2.30;;
61962;SDS011;47927;42.646;23.096;2023-08-17T11:31:06;4.90;;;2.00;;
61962;SDS011;47927;42.646;23.096;2023-08-17T11:33:34;3.50;;;1.88;;
61962;SDS011;47927;42.646;23.096;2023-08-17T11:36:02;7.68;;;2.00;;
61962;SDS011;47927;42.646;23.096;2023-08-17T11:38:38;4.35;;;1.98;;
61962;SDS011;47927;42.646;23.096;2023-08-17T11:41:05;5.38;;;1.88;;
61962;SDS011;47927;42.646;23.096;2023-08-17T11:43:33;5.00;;;2.20;;
61962;SDS011;47927;42.646;23.096;2023-08-17T11:45:59;5.20;;;1.85;;
61962;SDS011;47927;42.646;23.096;2023-08-17T11:50:54;7.00;;;2.10;;
61962;SDS011;47927;42.646;23.096;2023-08-17T11:55:48;4.40;;;2.33;;
61962;SDS011;47927;42.646;23.096;2023-08-17T11:58:14;5.32;;;1.85;;
61962;SDS011;47927;42.646;23.096;2023-08-17T12:00:41;6.13;;;2.20;;
61962;SDS011;47927;42.646;23.096;2023-08-17T12:03:07;8.20;;;1.90;;
61962;SDS011;47927;42.646;23.096;2023-08-17T12:05:33;4.40;;;2.30;;
61962;SDS011;47927;42.646;23.096;2023-08-17T12:07:59;3.97;;;2.20;;
61962;SDS011;47927;42.646;23.096;2023-08-17T12:10:28;5.82;;;2.00;;
61962;SDS011;47927;42.646;23.096;2023-08-17T12:12:59;9.85;;;2.47;;
61962;SDS011;47927;42.646;23.096;2023-08-17T12:17:58;6.53;;;3.03;;
61962;SDS011;47927;42.646;23.096;2023-08-17T12:20:25;9.07;;;2.40;;
61962;SDS011;47927;42.646;23.096;2023-08-17T12:22:51;5.85;;;2.30;;
61962;SDS011;47927;42.646;23.096;2023-08-17T12:25:16;5.20;;;2.55;;
61962;SDS011;47927;42.646;23.096;2023-08-17T12:30:33;6.90;;;2.38;;
61962;SDS011;47927;42.646;23.096;2023-08-17T12:32:58;6.28;;;2.65;;
61962;SDS011;47927;42.646;23.096;2023-08-17T12:35:24;5.10;;;2.50;;
61962;SDS011;47927;42.646;23.096;2023-08-17T12:37:51;5.65;;;2.75;;
61962;SDS011;47927;42.646;23.096;2023-08-17T12:40:17;4.60;;;2.80;;
61962;SDS011;47927;42.646;23.096;2023-08-17T12:42:42;7.63;;;2.75;;
61962;SDS011;47927;42.646;23.096;2023-08-17T12:45:08;6.25;;;2.63;;
61962;SDS011;47927;42.646;23.096;2023-08-17T12:47:34;5.93;;;2.78;;
61962;SDS011;47927;42.646;23.096;2023-08-17T12:49:59;6.10;;;3.10;;
61962;SDS011;47927;42.646;23.096;2023-08-17T12:52:26;5.47;;;2.95;;
61962;SDS011;47927;42.646;23.096;2023-08-17T12:54:53;5.32;;;3.28;;
61962;SDS011;47927;42.646;23.096;2023-08-17T12:57:18;4.57;;;2.40;;
61962;SDS011;47927;42.646;23.096;2023-08-17T12:59:44;4.22;;;2.20;;
61962;SDS011;47927;42.646;23.096;2023-08-17T13:02:09;6.43;;;2.95;;
61962;SDS011;47927;42.646;23.096;2023-08-17T13:04:35;6.53;;;2.85;;
61962;SDS011;47927;42.646;23.096;2023-08-17T13:07:01;6.00;;;3.65;;
61962;SDS011;47927;42.646;23.096;2023-08-17T13:09:27;7.45;;;3.10;;
61962;SDS011;47927;42.646;23.096;2023-08-17T13:11:52;5.90;;;3.42;;
61962;SDS011;47927;42.646;23.096;2023-08-17T13:14:18;6.10;;;3.30;;
61962;SDS011;47927;42.646;23.096;2023-08-17T13:16:43;5.40;;;3.50;;
61962;SDS011;47927;42.646;23.096;2023-08-17T13:19:09;9.27;;;3.55;;
61962;SDS011;47927;42.646;23.096;2023-08-17T13:21:34;6.13;;;3.35;;
61962;SDS011;47927;42.646;23.096;2023-08-17T13:24:00;5.97;;;2.97;;
61962;SDS011;47927;42.646;23.096;2023-08-17T13:26:28;5.03;;;3.10;;
61962;SDS011;47927;42.646;23.096;2023-08-17T13:28:54;8.60;;;3.17;;
61962;SDS011;47927;42.646;23.096;2023-08-17T13:31:19;8.15;;;3.20;;
61962;SDS011;47927;42.646;23.096;2023-08-17T13:33:45;6.50;;;3.33;;
61962;SDS011;47927;42.646;23.096;2023-08-17T13:36:10;5.30;;;3.47;;
61962;SDS011;47927;42.646;23.096;2023-08-17T13:38:36;6.47;;;3.10;;
61962;SDS011;47927;42.646;23.096;2023-08-17T13:41:03;7.15;;;3.30;;
61962;SDS011;47927;42.646;23.096;2023-08-17T13:43:29;7.30;;;3.35;;
61962;SDS011;47927;42.646;23.096;2023-08-17T13:45:55;6.90;;;3.30;;
61962;SDS011;47927;42.646;23.096;2023-08-17T13:48:20;9.05;;;3.47;;
61962;SDS011;47927;42.646;23.096;2023-08-17T13:50:46;8.90;;;3.20;;
61962;SDS011;47927;42.646;23.096;2023-08-17T13:53:11;4.35;;;3.05;;
61962;SDS011;47927;42.646;23.096;2023-08-17T13:55:37;4.45;;;2.90;;
61962;SDS011;47927;42.646;23.096;2023-08-17T13:58:02;5.97;;;3.20;;
61962;SDS011;47927;42.646;23.096;2023-08-17T14:00:28;6.93;;;2.88;;
61962;SDS011;47927;42.646;23.096;2023-08-17T14:02:53;8.20;;;3.45;;
61962;SDS011;47927;42.646;23.096;2023-08-17T14:05:19;5.93;;;3.45;;
61962;SDS011;47927;42.646;23.096;2023-08-17T14:07:45;10.40;;;3.63;;
61962;SDS011;47927;42.646;23.096;2023-08-17T14:10:10;4.45;;;3.03;;
61962;SDS011;47927;42.646;23.096;2023-08-17T14:12:36;6.57;;;3.60;;
61962;SDS011;47927;42.646;23.096;2023-08-17T14:15:01;5.18;;;2.85;;
61962;SDS011;47927;42.646;23.096;2023-08-17T14:17:27;11.05;;;3.00;;
61962;SDS011;47927;42.646;23.096;2023-08-17T14:19:53;9.40;;;3.40;;
61962;SDS011;47927;42.646;23.096;2023-08-17T14:22:20;5.05;;;3.13;;
61962;SDS011;47927;42.646;23.096;2023-08-17T14:24:45;5.93;;;2.97;;
61962;SDS011;47927;42.646;23.096;2023-08-17T14:27:11;6.10;;;3.50;;
61962;SDS011;47927;42.646;23.096;2023-08-17T14:29:36;6.85;;;3.53;;
61962;SDS011;47927;42.646;23.096;2023-08-17T14:32:02;7.40;;;3.35;;
61962;SDS011;47927;42.646;23.096;2023-08-17T14:34:28;7.72;;;3.10;;
61962;SDS011;47927;42.646;23.096;2023-08-17T14:36:53;5.15;;;3.25;;
61962;SDS011;47927;42.646;23.096;2023-08-17T14:39:19;5.13;;;3.15;;
61962;SDS011;47927;42.646;23.096;2023-08-17T14:41:44;8.13;;;3.22;;
61962;SDS011;47927;42.646;23.096;2023-08-17T14:44:10;5.30;;;3.30;;
61962;SDS011;47927;42.646;23.096;2023-08-17T14:46:35;5.85;;;2.90;;
61962;SDS011;47927;42.646;23.096;2023-08-17T14:49:03;6.20;;;3.00;;
61962;SDS011;47927;42.646;23.096;2023-08-17T14:51:29;6.38;;;3.10;;